الصفحة الرئيسية
METAR-TAF:

METAR-TAF

مطار :

مطار الرباط سلا

الرباط, المغرب

دائرة عرض: 34-03N, خط طول: 006-46W, ارتفاع: 84 متر

مراقبة الطقس الحالي

تاريخ ووقت الإصدار 37 دقيقة قبل الساعة 19:30UTC
ريح 6 عقدة من الغرب/الشمال الغربي, الاتجاه يتراوح بين الغرب و الشمال/الشمال الغربي
درجة الحرارة 16°درجة مئوية
الرطوبة 77%
ضغط 1008 hPa
الرؤية: 5000 متر
غيوم قليلة على ارتفاع 600 قدم

METAR: GMME 211930Z 30006KT 270V330 5000 FEW006 16/12 Q1008 TEMPO 3000 RA

زمن: 21:07 (20:07 UTC)

توقعات

تاريخ ووقت الإصدار 3ساعات و 7 دقيقة قبل الساعة 17:00UTC
التوقعات صالحة من21 الساعة 18 UTC إلى 22 الساعة 24 UTC
ريح 7 عقدة من الشمال الغربي
الرؤية: 5000 متر
غيوم متفرقة على ارتفاع 600 قدم
غيوم متفرقة على ارتفاع 1600 قدم
مؤقت
من 21 الساعة 18 UTC إلى 22 الساعة 05 UTC
الرؤية: 3000 متر
غيوم مفككة على ارتفاع 600 قدم
غيوم متفرقة على ارتفاع 1300 قدم
مطر

TAF: GMME 211700Z 2118/2224 32007KT 5000 SCT006 SCT016 TEMPO 2118/2205 3000 RA BKN006 SCT013

أرصاد الطقس والتوقعات من أكثر من 4000 مطار (تقارير الطقس للمطار METAR والتنبؤ بالطقس بالمطارTAF).

المحطات المتاحة هي النقط الصفراء والحمراء على الخريطة.

حرك المؤشر فوق النقطة لمعرفة اسم المحطة.

ثم انقر لمعرفة أرصاد وتوقعات الطقس.

لتغيير الخارطة: اضغط على الأزرار الخضراء مع رمز الصليب الأسود للتكبير. على الزر الأخضر مع شرطة للتصغير، أو على الأسهم الخضراء للخرائط المجاورة.


METAR-TAF: